AGROMETEOROLOŠKI PORTAL

vinorodna pokrajina

Temelj dobrega kmetovanja

Pregled podatkov za lokacijo Savci, meteorološka postaja 42845

Pregled senzorjev na lokaciji

ID Ime Zadnja
vrednost
Datum in čas
meritve
(lokalni čas)
Tip
senzorja
4921 Omočenost lista (1,5 m) (U) 1 U 7.10.2022 20:00 A730WET
5050 Padavine (mm) 0 mm 7.10.2022 20:00 Generic 0.2 mm
4923 Relativna zračna vlaga (2 m) (%RH) 97 %RH 7.10.2022 20:00 50YA
4922 Temperatura (2 m) (°C) 12,8 °C 7.10.2022 20:00 50YA

Pregled podatkov zadnjih 24 ur

Zap.
št.
Datum in čas
(lokalni čas)
Savci
Omočenost
lista
(1,5
m)
Padavine Relativna
zračna
vlaga
(2
m)
Temperatura
(2
m)
1 7.10.2022 20:00 1 0 97 12,8
2 7.10.2022 19:30 1 0 95,5 13,6
3 7.10.2022 19:00 0 0 90,4 14,8
4 7.10.2022 18:30 0 0 80,3 17,6
5 7.10.2022 18:00 0 0 73 19,3
6 7.10.2022 17:30 0 0 69,8 20
7 7.10.2022 17:00 0 0 68,8 20,4
8 7.10.2022 16:30 0 0 66,4 20,9
9 7.10.2022 16:00 0 0 63,6 21,2
10 7.10.2022 15:30 0 0 62,1 21,3
11 7.10.2022 15:00 0 0 63,1 21,2
12 7.10.2022 14:30 0 0 61,9 21,7
13 7.10.2022 14:00 0 0 64,1 21
14 7.10.2022 13:30 0 0 67,2 20,8
15 7.10.2022 13:00 0 0 70 20,4
16 7.10.2022 12:30 0 0 72,6 19,7
17 7.10.2022 12:00 0 0 74 19,2
18 7.10.2022 11:30 0 0 73,6 19,3
19 7.10.2022 11:00 0 0 73,8 18,6
20 7.10.2022 10:30 0 0 80,5 17,5
21 7.10.2022 10:00 0 0 85,6 16
22 7.10.2022 09:30 0 0 90,6 14,5
23 7.10.2022 09:00 0 0 100 12
24 7.10.2022 08:30 10 0 100 10,4
25 7.10.2022 08:00 10 0 100 8,8
26 7.10.2022 07:30 10 0 100 8,1
27 7.10.2022 07:00 10 0 100 8,5
28 7.10.2022 06:30 10 0 100 8,2
29 7.10.2022 06:00 10 0 100 8,3
30 7.10.2022 05:30 10 0 100 8,7
31 7.10.2022 05:00 10 0 100 8,7
32 7.10.2022 04:30 10 0 100 8,6
33 7.10.2022 04:00 10 0 100 9,1
34 7.10.2022 03:30 10 0 100 9,1
35 7.10.2022 03:00 9 0 100 9,2
36 7.10.2022 02:30 9 0 100 9,5
37 7.10.2022 02:00 8 0 100 10
38 7.10.2022 01:30 7 0 100 10,1
39 7.10.2022 01:00 6 0 100 10,3
40 7.10.2022 00:30 6 0 100 10,5
41 7.10.2022 00:00 5 0 100 10,9
42 6.10.2022 23:30 3 0 99,7 11,1
43 6.10.2022 23:00 4 0 99,7 11,5
44 6.10.2022 22:30 3 0 99,6 11,8
45 6.10.2022 22:00 3 0 99 12